sensor_id;sensor_type;location;lat;lon;timestamp;P1;durP1;ratioP1;P2;durP2;ratioP2
44270;SDS011;29963;44.594;11.368;2023-04-03T00:00:22;6.13;;;5.10;;
44270;SDS011;29963;44.594;11.368;2023-04-03T00:02:48;5.50;;;4.93;;
44270;SDS011;29963;44.594;11.368;2023-04-03T00:05:13;5.97;;;4.85;;
44270;SDS011;29963;44.594;11.368;2023-04-03T00:07:39;5.07;;;4.53;;
44270;SDS011;29963;44.594;11.368;2023-04-03T00:10:05;5.65;;;4.85;;
44270;SDS011;29963;44.594;11.368;2023-04-03T00:12:31;5.25;;;4.65;;
44270;SDS011;29963;44.594;11.368;2023-04-03T00:14:57;5.75;;;5.20;;
44270;SDS011;29963;44.594;11.368;2023-04-03T00:17:22;5.82;;;5.20;;
44270;SDS011;29963;44.594;11.368;2023-04-03T00:19:48;9.70;;;5.60;;
44270;SDS011;29963;44.594;11.368;2023-04-03T00:22:13;5.55;;;5.13;;
44270;SDS011;29963;44.594;11.368;2023-04-03T00:24:39;5.43;;;4.93;;
44270;SDS011;29963;44.594;11.368;2023-04-03T00:27:05;4.90;;;4.45;;
44270;SDS011;29963;44.594;11.368;2023-04-03T00:29:30;6.03;;;5.07;;
44270;SDS011;29963;44.594;11.368;2023-04-03T00:31:56;7.10;;;5.38;;
44270;SDS011;29963;44.594;11.368;2023-04-03T00:34:22;5.82;;;5.30;;
44270;SDS011;29963;44.594;11.368;2023-04-03T00:36:47;6.47;;;4.75;;
44270;SDS011;29963;44.594;11.368;2023-04-03T00:39:13;6.50;;;4.65;;
44270;SDS011;29963;44.594;11.368;2023-04-03T00:41:38;7.60;;;5.15;;
44270;SDS011;29963;44.594;11.368;2023-04-03T00:44:21;5.25;;;4.50;;
44270;SDS011;29963;44.594;11.368;2023-04-03T00:46:53;9.43;;;5.03;;
44270;SDS011;29963;44.594;11.368;2023-04-03T00:49:19;4.82;;;4.43;;
44270;SDS011;29963;44.594;11.368;2023-04-03T00:51:45;5.35;;;4.85;;
44270;SDS011;29963;44.594;11.368;2023-04-03T00:54:11;5.00;;;4.57;;
44270;SDS011;29963;44.594;11.368;2023-04-03T00:56:37;5.13;;;4.40;;
44270;SDS011;29963;44.594;11.368;2023-04-03T00:59:04;5.85;;;5.35;;
44270;SDS011;29963;44.594;11.368;2023-04-03T01:01:35;5.93;;;5.07;;
44270;SDS011;29963;44.594;11.368;2023-04-03T01:04:01;6.93;;;5.20;;
44270;SDS011;29963;44.594;11.368;2023-04-03T01:06:28;5.45;;;4.78;;
44270;SDS011;29963;44.594;11.368;2023-04-03T01:08:57;7.43;;;4.93;;
44270;SDS011;29963;44.594;11.368;2023-04-03T01:11:24;4.45;;;4.05;;
44270;SDS011;29963;44.594;11.368;2023-04-03T01:13:51;6.20;;;4.63;;
44270;SDS011;29963;44.594;11.368;2023-04-03T01:16:17;4.70;;;4.30;;
44270;SDS011;29963;44.594;11.368;2023-04-03T01:18:42;5.63;;;4.90;;
44270;SDS011;29963;44.594;11.368;2023-04-03T01:26:53;4.95;;;4.45;;
44270;SDS011;29963;44.594;11.368;2023-04-03T01:29:18;7.95;;;4.60;;
44270;SDS011;29963;44.594;11.368;2023-04-03T01:31:46;4.55;;;4.13;;
44270;SDS011;29963;44.594;11.368;2023-04-03T01:34:20;5.05;;;4.53;;
44270;SDS011;29963;44.594;11.368;2023-04-03T01:36:46;5.35;;;4.32;;
44270;SDS011;29963;44.594;11.368;2023-04-03T01:39:11;5.60;;;5.07;;
44270;SDS011;29963;44.594;11.368;2023-04-03T01:41:37;5.75;;;5.15;;
44270;SDS011;29963;44.594;11.368;2023-04-03T01:44:03;5.13;;;4.50;;
44270;SDS011;29963;44.594;11.368;2023-04-03T01:46:29;7.75;;;5.07;;
44270;SDS011;29963;44.594;11.368;2023-04-03T01:48:55;8.68;;;5.30;;
44270;SDS011;29963;44.594;11.368;2023-04-03T01:51:21;4.90;;;4.50;;
44270;SDS011;29963;44.594;11.368;2023-04-03T01:53:47;5.10;;;4.60;;
44270;SDS011;29963;44.594;11.368;2023-04-03T01:56:12;5.25;;;4.75;;
44270;SDS011;29963;44.594;11.368;2023-04-03T01:58:38;4.38;;;3.97;;
44270;SDS011;29963;44.594;11.368;2023-04-03T02:01:04;5.63;;;5.13;;
44270;SDS011;29963;44.594;11.368;2023-04-03T02:03:31;8.38;;;5.18;;
44270;SDS011;29963;44.594;11.368;2023-04-03T02:05:56;6.18;;;5.18;;
44270;SDS011;29963;44.594;11.368;2023-04-03T02:08:22;6.15;;;5.05;;
44270;SDS011;29963;44.594;11.368;2023-04-03T02:10:48;5.28;;;4.88;;
44270;SDS011;29963;44.594;11.368;2023-04-03T02:13:15;6.53;;;5.30;;
44270;SDS011;29963;44.594;11.368;2023-04-03T02:15:41;5.95;;;4.97;;
44270;SDS011;29963;44.594;11.368;2023-04-03T02:18:07;5.72;;;4.82;;
44270;SDS011;29963;44.594;11.368;2023-04-03T02:20:33;6.53;;;4.68;;
44270;SDS011;29963;44.594;11.368;2023-04-03T02:22:59;8.93;;;5.05;;
44270;SDS011;29963;44.594;11.368;2023-04-03T02:25:25;4.90;;;4.40;;
44270;SDS011;29963;44.594;11.368;2023-04-03T02:27:51;7.68;;;4.95;;
44270;SDS011;29963;44.594;11.368;2023-04-03T02:30:17;5.93;;;4.35;;
44270;SDS011;29963;44.594;11.368;2023-04-03T02:32:42;5.15;;;4.63;;
44270;SDS011;29963;44.594;11.368;2023-04-03T02:35:08;8.00;;;5.50;;
44270;SDS011;29963;44.594;11.368;2023-04-03T02:37:35;5.25;;;4.75;;
44270;SDS011;29963;44.594;11.368;2023-04-03T02:40:01;4.95;;;4.53;;
44270;SDS011;29963;44.594;11.368;2023-04-03T02:42:27;6.03;;;5.13;;
44270;SDS011;29963;44.594;11.368;2023-04-03T02:44:53;6.57;;;5.03;;
44270;SDS011;29963;44.594;11.368;2023-04-03T02:47:18;7.10;;;4.88;;
44270;SDS011;29963;44.594;11.368;2023-04-03T02:49:44;5.28;;;4.85;;
44270;SDS011;29963;44.594;11.368;2023-04-03T02:52:10;5.93;;;5.32;;
44270;SDS011;29963;44.594;11.368;2023-04-03T02:54:37;5.32;;;4.63;;
44270;SDS011;29963;44.594;11.368;2023-04-03T02:57:02;5.43;;;5.00;;
44270;SDS011;29963;44.594;11.368;2023-04-03T02:59:28;7.15;;;5.70;;
44270;SDS011;29963;44.594;11.368;2023-04-03T03:01:54;5.35;;;4.85;;
44270;SDS011;29963;44.594;11.368;2023-04-03T03:04:20;5.53;;;5.03;;
44270;SDS011;29963;44.594;11.368;2023-04-03T03:06:46;5.50;;;5.00;;
44270;SDS011;29963;44.594;11.368;2023-04-03T03:09:12;7.38;;;5.40;;
44270;SDS011;29963;44.594;11.368;2023-04-03T03:11:38;5.95;;;5.35;;
44270;SDS011;29963;44.594;11.368;2023-04-03T03:14:04;5.82;;;5.07;;
44270;SDS011;29963;44.594;11.368;2023-04-03T03:16:29;6.13;;;5.05;;
44270;SDS011;29963;44.594;11.368;2023-04-03T03:18:55;6.07;;;4.63;;
44270;SDS011;29963;44.594;11.368;2023-04-03T03:21:20;5.53;;;5.03;;
44270;SDS011;29963;44.594;11.368;2023-04-03T03:23:46;5.55;;;4.72;;
44270;SDS011;29963;44.594;11.368;2023-04-03T03:26:12;5.65;;;5.15;;
44270;SDS011;29963;44.594;11.368;2023-04-03T03:28:38;5.07;;;4.57;;
44270;SDS011;29963;44.594;11.368;2023-04-03T03:31:05;5.75;;;5.15;;
44270;SDS011;29963;44.594;11.368;2023-04-03T03:33:31;7.55;;;5.00;;
44270;SDS011;29963;44.594;11.368;2023-04-03T03:35:57;7.63;;;5.15;;
44270;SDS011;29963;44.594;11.368;2023-04-03T03:38:23;5.45;;;4.85;;
44270;SDS011;29963;44.594;11.368;2023-04-03T03:40:49;5.18;;;4.63;;
44270;SDS011;29963;44.594;11.368;2023-04-03T03:43:16;5.65;;;4.75;;
44270;SDS011;29963;44.594;11.368;2023-04-03T03:45:42;4.72;;;4.22;;
44270;SDS011;29963;44.594;11.368;2023-04-03T03:48:08;5.82;;;4.35;;
44270;SDS011;29963;44.594;11.368;2023-04-03T03:50:34;6.47;;;5.07;;
44270;SDS011;29963;44.594;11.368;2023-04-03T03:53:00;5.35;;;4.82;;
44270;SDS011;29963;44.594;11.368;2023-04-03T03:55:26;6.72;;;5.32;;
44270;SDS011;29963;44.594;11.368;2023-04-03T03:57:52;5.20;;;4.80;;
44270;SDS011;29963;44.594;11.368;2023-04-03T04:00:18;4.97;;;4.55;;
44270;SDS011;29963;44.594;11.368;2023-04-03T04:02:43;5.32;;;4.82;;
44270;SDS011;29963;44.594;11.368;2023-04-03T04:05:09;7.00;;;5.18;;
44270;SDS011;29963;44.594;11.368;2023-04-03T04:07:35;5.57;;;4.43;;
44270;SDS011;29963;44.594;11.368;2023-04-03T04:10:01;5.90;;;4.47;;
44270;SDS011;29963;44.594;11.368;2023-04-03T04:12:27;5.43;;;4.93;;
44270;SDS011;29963;44.594;11.368;2023-04-03T04:14:53;5.82;;;5.22;;
44270;SDS011;29963;44.594;11.368;2023-04-03T04:17:18;5.15;;;4.70;;
44270;SDS011;29963;44.594;11.368;2023-04-03T04:19:44;4.95;;;4.45;;
44270;SDS011;29963;44.594;11.368;2023-04-03T04:22:10;8.63;;;5.35;;
44270;SDS011;29963;44.594;11.368;2023-04-03T04:24:36;5.15;;;4.18;;
44270;SDS011;29963;44.594;11.368;2023-04-03T04:27:02;4.43;;;4.10;;
44270;SDS011;29963;44.594;11.368;2023-04-03T04:29:27;4.38;;;3.97;;
44270;SDS011;29963;44.594;11.368;2023-04-03T04:31:53;5.55;;;4.03;;
44270;SDS011;29963;44.594;11.368;2023-04-03T04:34:19;9.38;;;5.43;;
44270;SDS011;29963;44.594;11.368;2023-04-03T04:36:45;5.72;;;4.00;;
44270;SDS011;29963;44.594;11.368;2023-04-03T04:39:10;7.43;;;4.72;;
44270;SDS011;29963;44.594;11.368;2023-04-03T04:41:36;4.80;;;4.40;;
44270;SDS011;29963;44.594;11.368;2023-04-03T04:44:02;4.60;;;4.20;;
44270;SDS011;29963;44.594;11.368;2023-04-03T04:46:27;8.15;;;5.03;;
44270;SDS011;29963;44.594;11.368;2023-04-03T04:48:53;5.28;;;4.60;;
44270;SDS011;29963;44.594;11.368;2023-04-03T04:51:19;7.15;;;4.47;;
44270;SDS011;29963;44.594;11.368;2023-04-03T04:53:45;7.22;;;5.38;;
44270;SDS011;29963;44.594;11.368;2023-04-03T04:56:10;6.03;;;4.85;;
44270;SDS011;29963;44.594;11.368;2023-04-03T04:58:36;5.03;;;4.38;;
44270;SDS011;29963;44.594;11.368;2023-04-03T05:01:06;5.53;;;5.13;;
44270;SDS011;29963;44.594;11.368;2023-04-03T05:03:33;6.93;;;5.20;;
44270;SDS011;29963;44.594;11.368;2023-04-03T05:05:59;4.97;;;4.50;;
44270;SDS011;29963;44.594;11.368;2023-04-03T05:08:25;5.82;;;4.28;;
44270;SDS011;29963;44.594;11.368;2023-04-03T05:10:51;7.50;;;5.35;;
44270;SDS011;29963;44.594;11.368;2023-04-03T05:13:18;5.45;;;4.82;;
44270;SDS011;29963;44.594;11.368;2023-04-03T05:15:43;7.93;;;5.20;;
44270;SDS011;29963;44.594;11.368;2023-04-03T05:18:09;5.35;;;4.85;;
44270;SDS011;29963;44.594;11.368;2023-04-03T05:20:35;6.65;;;5.05;;
44270;SDS011;29963;44.594;11.368;2023-04-03T05:23:01;10.63;;;5.63;;
44270;SDS011;29963;44.594;11.368;2023-04-03T05:25:27;8.32;;;6.13;;
44270;SDS011;29963;44.594;11.368;2023-04-03T05:27:53;6.00;;;5.40;;
44270;SDS011;29963;44.594;11.368;2023-04-03T05:30:18;6.78;;;4.97;;
44270;SDS011;29963;44.594;11.368;2023-04-03T05:32:44;5.45;;;4.90;;
44270;SDS011;29963;44.594;11.368;2023-04-03T05:35:10;5.50;;;5.00;;
44270;SDS011;29963;44.594;11.368;2023-04-03T05:37:36;5.78;;;5.03;;
44270;SDS011;29963;44.594;11.368;2023-04-03T05:40:05;6.60;;;6.00;;
44270;SDS011;29963;44.594;11.368;2023-04-03T05:42:32;6.20;;;5.57;;
44270;SDS011;29963;44.594;11.368;2023-04-03T05:44:57;7.88;;;5.95;;
44270;SDS011;29963;44.594;11.368;2023-04-03T05:47:23;6.50;;;5.85;;
44270;SDS011;29963;44.594;11.368;2023-04-03T05:49:49;5.70;;;5.20;;
44270;SDS011;29963;44.594;11.368;2023-04-03T05:52:23;6.38;;;5.70;;
44270;SDS011;29963;44.594;11.368;2023-04-03T05:54:53;5.93;;;5.32;;
44270;SDS011;29963;44.594;11.368;2023-04-03T05:57:19;5.78;;;5.20;;
44270;SDS011;29963;44.594;11.368;2023-04-03T05:59:45;6.03;;;5.40;;
44270;SDS011;29963;44.594;11.368;2023-04-03T06:02:18;7.28;;;5.93;;
44270;SDS011;29963;44.594;11.368;2023-04-03T06:04:46;4.97;;;4.57;;
44270;SDS011;29963;44.594;11.368;2023-04-03T06:07:16;6.35;;;5.57;;
44270;SDS011;29963;44.594;11.368;2023-04-03T06:09:44;6.38;;;5.13;;
44270;SDS011;29963;44.594;11.368;2023-04-03T06:12:10;7.13;;;4.88;;
44270;SDS011;29963;44.594;11.368;2023-04-03T06:14:36;8.18;;;6.40;;
44270;SDS011;29963;44.594;11.368;2023-04-03T06:17:02;7.35;;;5.95;;
44270;SDS011;29963;44.594;11.368;2023-04-03T06:19:28;6.95;;;6.15;;
44270;SDS011;29963;44.594;11.368;2023-04-03T06:21:53;7.15;;;5.70;;
44270;SDS011;29963;44.594;11.368;2023-04-03T06:24:19;7.85;;;6.57;;
44270;SDS011;29963;44.594;11.368;2023-04-03T06:26:47;7.88;;;6.47;;
44270;SDS011;29963;44.594;11.368;2023-04-03T06:29:14;8.02;;;7.20;;
44270;SDS011;29963;44.594;11.368;2023-04-03T06:31:40;6.93;;;6.10;;
44270;SDS011;29963;44.594;11.368;2023-04-03T06:34:06;7.70;;;6.90;;
44270;SDS011;29963;44.594;11.368;2023-04-03T06:36:32;11.43;;;7.35;;
44270;SDS011;29963;44.594;11.368;2023-04-03T06:38:58;9.30;;;8.40;;
44270;SDS011;29963;44.594;11.368;2023-04-03T06:41:23;7.90;;;7.15;;
44270;SDS011;29963;44.594;11.368;2023-04-03T06:43:50;9.45;;;8.43;;
44270;SDS011;29963;44.594;11.368;2023-04-03T06:46:16;9.50;;;7.57;;
44270;SDS011;29963;44.594;11.368;2023-04-03T06:48:44;10.57;;;8.10;;
44270;SDS011;29963;44.594;11.368;2023-04-03T06:51:31;8.32;;;7.45;;
44270;SDS011;29963;44.594;11.368;2023-04-03T06:53:57;8.52;;;7.72;;
44270;SDS011;29963;44.594;11.368;2023-04-03T06:56:23;13.15;;;8.48;;
44270;SDS011;29963;44.594;11.368;2023-04-03T06:58:50;8.90;;;8.15;;
44270;SDS011;29963;44.594;11.368;2023-04-03T07:01:16;12.25;;;9.30;;
44270;SDS011;29963;44.594;11.368;2023-04-03T07:03:44;10.50;;;9.40;;
44270;SDS011;29963;44.594;11.368;2023-04-03T07:06:11;10.63;;;8.93;;
44270;SDS011;29963;44.594;11.368;2023-04-03T07:08:38;9.25;;;8.32;;
44270;SDS011;29963;44.594;11.368;2023-04-03T07:11:04;10.60;;;8.05;;
44270;SDS011;29963;44.594;11.368;2023-04-03T07:13:30;13.85;;;9.52;;
44270;SDS011;29963;44.594;11.368;2023-04-03T07:15:56;10.80;;;8.90;;
44270;SDS011;29963;44.594;11.368;2023-04-03T07:18:22;10.38;;;9.38;;
44270;SDS011;29963;44.594;11.368;2023-04-03T07:20:48;15.02;;;11.50;;
44270;SDS011;29963;44.594;11.368;2023-04-03T07:23:13;10.70;;;9.70;;
44270;SDS011;29963;44.594;11.368;2023-04-03T07:25:43;11.38;;;9.93;;
44270;SDS011;29963;44.594;11.368;2023-04-03T07:28:13;11.43;;;9.68;;
44270;SDS011;29963;44.594;11.368;2023-04-03T07:30:47;12.88;;;10.05;;
44270;SDS011;29963;44.594;11.368;2023-04-03T07:33:14;11.55;;;10.35;;
44270;SDS011;29963;44.594;11.368;2023-04-03T07:35:41;10.32;;;9.27;;
44270;SDS011;29963;44.594;11.368;2023-04-03T07:38:08;11.70;;;10.60;;
44270;SDS011;29963;44.594;11.368;2023-04-03T07:40:34;13.20;;;10.95;;
44270;SDS011;29963;44.594;11.368;2023-04-03T07:43:01;10.40;;;9.40;;
44270;SDS011;29963;44.594;11.368;2023-04-03T07:45:27;11.45;;;10.25;;
44270;SDS011;29963;44.594;11.368;2023-04-03T07:47:54;11.48;;;9.82;;
44270;SDS011;29963;44.594;11.368;2023-04-03T07:50:20;10.27;;;9.38;;
44270;SDS011;29963;44.594;11.368;2023-04-03T07:52:45;14.57;;;11.60;;
44270;SDS011;29963;44.594;11.368;2023-04-03T07:55:11;11.55;;;10.23;;
44270;SDS011;29963;44.594;11.368;2023-04-03T07:57:37;14.32;;;10.15;;
44270;SDS011;29963;44.594;11.368;2023-04-03T08:00:03;10.23;;;9.15;;
44270;SDS011;29963;44.594;11.368;2023-04-03T08:02:29;10.38;;;9.30;;
44270;SDS011;29963;44.594;11.368;2023-04-03T08:04:57;10.93;;;8.52;;
44270;SDS011;29963;44.594;11.368;2023-04-03T08:07:23;10.90;;;9.80;;
44270;SDS011;29963;44.594;11.368;2023-04-03T08:09:49;9.32;;;8.13;;
44270;SDS011;29963;44.594;11.368;2023-04-03T08:12:15;14.40;;;10.00;;
44270;SDS011;29963;44.594;11.368;2023-04-03T08:14:41;9.98;;;8.88;;
44270;SDS011;29963;44.594;11.368;2023-04-03T08:17:07;11.10;;;9.93;;
44270;SDS011;29963;44.594;11.368;2023-04-03T08:19:36;11.02;;;9.93;;
44270;SDS011;29963;44.594;11.368;2023-04-03T08:22:03;9.02;;;8.13;;
44270;SDS011;29963;44.594;11.368;2023-04-03T08:24:30;9.95;;;8.73;;
44270;SDS011;29963;44.594;11.368;2023-04-03T08:26:56;11.27;;;8.10;;
44270;SDS011;29963;44.594;11.368;2023-04-03T08:29:23;10.35;;;8.25;;
44270;SDS011;29963;44.594;11.368;2023-04-03T08:31:49;10.88;;;8.25;;
44270;SDS011;29963;44.594;11.368;2023-04-03T08:34:15;11.38;;;8.68;;
44270;SDS011;29963;44.594;11.368;2023-04-03T08:36:41;9.93;;;8.95;;
44270;SDS011;29963;44.594;11.368;2023-04-03T08:39:07;8.48;;;7.55;;
44270;SDS011;29963;44.594;11.368;2023-04-03T08:41:40;9.07;;;6.90;;
44270;SDS011;29963;44.594;11.368;2023-04-03T08:44:15;10.63;;;8.02;;
44270;SDS011;29963;44.594;11.368;2023-04-03T08:46:53;7.72;;;6.95;;
44270;SDS011;29963;44.594;11.368;2023-04-03T08:49:31;8.23;;;5.07;;
44270;SDS011;29963;44.594;11.368;2023-04-03T08:57:45;7.13;;;5.63;;
44270;SDS011;29963;44.594;11.368;2023-04-03T09:02:48;6.15;;;4.85;;
44270;SDS011;29963;44.594;11.368;2023-04-03T09:10:35;8.73;;;6.30;;
44270;SDS011;29963;44.594;11.368;2023-04-03T09:16:15;6.53;;;4.97;;
44270;SDS011;29963;44.594;11.368;2023-04-03T09:19:06;8.07;;;5.75;;
44270;SDS011;29963;44.594;11.368;2023-04-03T09:21:40;7.03;;;6.32;;
44270;SDS011;29963;44.594;11.368;2023-04-03T09:24:07;10.00;;;6.93;;
44270;SDS011;29963;44.594;11.368;2023-04-03T09:26:39;8.75;;;7.05;;
44270;SDS011;29963;44.594;11.368;2023-04-03T09:29:27;6.25;;;5.65;;
44270;SDS011;29963;44.594;11.368;2023-04-03T09:31:58;8.10;;;7.03;;
44270;SDS011;29963;44.594;11.368;2023-04-03T09:34:32;8.35;;;6.82;;
44270;SDS011;29963;44.594;11.368;2023-04-03T09:37:01;17.75;;;8.18;;
44270;SDS011;29963;44.594;11.368;2023-04-03T09:39:33;11.52;;;8.25;;
44270;SDS011;29963;44.594;11.368;2023-04-03T09:42:20;9.15;;;7.63;;
44270;SDS011;29963;44.594;11.368;2023-04-03T09:44:54;10.10;;;6.88;;
44270;SDS011;29963;44.594;11.368;2023-04-03T09:52:37;10.48;;;7.00;;
44270;SDS011;29963;44.594;11.368;2023-04-03T09:55:08;9.55;;;6.57;;
44270;SDS011;29963;44.594;11.368;2023-04-03T09:57:46;7.30;;;5.43;;
44270;SDS011;29963;44.594;11.368;2023-04-03T10:00:23;10.32;;;5.65;;
44270;SDS011;29963;44.594;11.368;2023-04-03T10:02:55;7.82;;;6.00;;
44270;SDS011;29963;44.594;11.368;2023-04-03T10:05:29;7.88;;;6.05;;
44270;SDS011;29963;44.594;11.368;2023-04-03T10:10:34;7.95;;;5.65;;
44270;SDS011;29963;44.594;11.368;2023-04-03T10:13:19;6.63;;;5.90;;
44270;SDS011;29963;44.594;11.368;2023-04-03T10:16:07;7.05;;;6.07;;
44270;SDS011;29963;44.594;11.368;2023-04-03T10:18:39;9.13;;;7.53;;
44270;SDS011;29963;44.594;11.368;2023-04-03T10:21:40;7.00;;;5.95;;
44270;SDS011;29963;44.594;11.368;2023-04-03T10:27:06;8.50;;;6.03;;
44270;SDS011;29963;44.594;11.368;2023-04-03T10:30:19;13.02;;;7.00;;
44270;SDS011;29963;44.594;11.368;2023-04-03T10:32:44;6.97;;;6.00;;
44270;SDS011;29963;44.594;11.368;2023-04-03T10:38:20;12.55;;;6.40;;
44270;SDS011;29963;44.594;11.368;2023-04-03T10:43:46;6.93;;;5.35;;
44270;SDS011;29963;44.594;11.368;2023-04-03T10:51:59;5.03;;;3.65;;
44270;SDS011;29963;44.594;11.368;2023-04-03T10:55:17;4.47;;;2.75;;
44270;SDS011;29963;44.594;11.368;2023-04-03T10:57:15;7.95;;;4.07;;
44270;SDS011;29963;44.594;11.368;2023-04-03T11:02:19;5.35;;;3.63;;
44270;SDS011;29963;44.594;11.368;2023-04-03T11:04:56;3.15;;;2.67;;
44270;SDS011;29963;44.594;11.368;2023-04-03T11:07:28;4.95;;;3.00;;
44270;SDS011;29963;44.594;11.368;2023-04-03T11:10:03;4.38;;;2.53;;
44270;SDS011;29963;44.594;11.368;2023-04-03T11:12:48;6.35;;;2.25;;
44270;SDS011;29963;44.594;11.368;2023-04-03T11:15:21;2.17;;;1.70;;
44270;SDS011;29963;44.594;11.368;2023-04-03T11:18:00;4.47;;;1.67;;
44270;SDS011;29963;44.594;11.368;2023-04-03T11:20:36;2.90;;;1.65;;
44270;SDS011;29963;44.594;11.368;2023-04-03T11:26:41;2.65;;;1.98;;
44270;SDS011;29963;44.594;11.368;2023-04-03T11:28:56;2.05;;;1.60;;
44270;SDS011;29963;44.594;11.368;2023-04-03T11:34:19;3.67;;;1.98;;
44270;SDS011;29963;44.594;11.368;2023-04-03T11:37:01;2.47;;;1.52;;
44270;SDS011;29963;44.594;11.368;2023-04-03T11:39:58;3.22;;;1.35;;
44270;SDS011;29963;44.594;11.368;2023-04-03T11:42:33;5.53;;;1.52;;
44270;SDS011;29963;44.594;11.368;2023-04-03T11:47:50;1.95;;;1.35;;
44270;SDS011;29963;44.594;11.368;2023-04-03T12:14:20;1.70;;;1.30;;
44270;SDS011;29963;44.594;11.368;2023-04-03T12:16:29;4.32;;;1.52;;
44270;SDS011;29963;44.594;11.368;2023-04-03T12:24:33;2.95;;;1.48;;
44270;SDS011;29963;44.594;11.368;2023-04-03T12:27:02;3.08;;;2.10;;
44270;SDS011;29963;44.594;11.368;2023-04-03T12:29:34;1.77;;;1.23;;
44270;SDS011;29963;44.594;11.368;2023-04-03T12:32:11;3.08;;;1.35;;
44270;SDS011;29963;44.594;11.368;2023-04-03T12:40:25;2.67;;;1.48;;
44270;SDS011;29963;44.594;11.368;2023-04-03T12:45:47;1.30;;;1.20;;
44270;SDS011;29963;44.594;11.368;2023-04-03T12:48:15;3.85;;;1.70;;
44270;SDS011;29963;44.594;11.368;2023-04-03T12:50:43;3.90;;;2.40;;
44270;SDS011;29963;44.594;11.368;2023-04-03T12:55:43;2.08;;;1.40;;
44270;SDS011;29963;44.594;11.368;2023-04-03T13:00:45;4.05;;;1.40;;
44270;SDS011;29963;44.594;11.368;2023-04-03T13:03:21;3.25;;;1.70;;
44270;SDS011;29963;44.594;11.368;2023-04-03T13:05:49;1.75;;;1.55;;
44270;SDS011;29963;44.594;11.368;2023-04-03T13:08:15;3.45;;;1.30;;
44270;SDS011;29963;44.594;11.368;2023-04-03T13:11:28;3.50;;;1.48;;
44270;SDS011;29963;44.594;11.368;2023-04-03T13:13:35;2.63;;;1.55;;
44270;SDS011;29963;44.594;11.368;2023-04-03T13:16:09;2.65;;;1.50;;
44270;SDS011;29963;44.594;11.368;2023-04-03T13:18:36;3.08;;;1.20;;
44270;SDS011;29963;44.594;11.368;2023-04-03T13:21:45;2.83;;;1.70;;
44270;SDS011;29963;44.594;11.368;2023-04-03T13:23:59;4.43;;;1.52;;
44270;SDS011;29963;44.594;11.368;2023-04-03T13:26:29;2.33;;;1.48;;
44270;SDS011;29963;44.594;11.368;2023-04-03T13:28:59;3.17;;;1.30;;
44270;SDS011;29963;44.594;11.368;2023-04-03T13:31:32;1.80;;;1.08;;
44270;SDS011;29963;44.594;11.368;2023-04-03T13:34:05;1.67;;;1.50;;
44270;SDS011;29963;44.594;11.368;2023-04-03T13:36:40;1.17;;;1.15;;
44270;SDS011;29963;44.594;11.368;2023-04-03T13:41:41;1.20;;;1.10;;
44270;SDS011;29963;44.594;11.368;2023-04-03T13:46:51;2.88;;;1.33;;
44270;SDS011;29963;44.594;11.368;2023-04-03T13:49:29;2.15;;;1.17;;
44270;SDS011;29963;44.594;11.368;2023-04-03T13:51:58;3.20;;;1.30;;
44270;SDS011;29963;44.594;11.368;2023-04-03T13:56:57;3.22;;;1.35;;
44270;SDS011;29963;44.594;11.368;2023-04-03T13:59:29;2.20;;;1.65;;
44270;SDS011;29963;44.594;11.368;2023-04-03T14:05:10;4.65;;;1.30;;
44270;SDS011;29963;44.594;11.368;2023-04-03T14:07:24;1.98;;;1.30;;
44270;SDS011;29963;44.594;11.368;2023-04-03T14:09:51;3.63;;;1.50;;
44270;SDS011;29963;44.594;11.368;2023-04-03T14:12:24;2.50;;;2.05;;
44270;SDS011;29963;44.594;11.368;2023-04-03T14:14:51;1.90;;;1.45;;
44270;SDS011;29963;44.594;11.368;2023-04-03T14:17:18;1.02;;;1.00;;
44270;SDS011;29963;44.594;11.368;2023-04-03T14:19:47;4.82;;;1.50;;
44270;SDS011;29963;44.594;11.368;2023-04-03T14:22:17;1.05;;;1.02;;
44270;SDS011;29963;44.594;11.368;2023-04-03T14:24:50;3.05;;;1.52;;
44270;SDS011;29963;44.594;11.368;2023-04-03T14:29:45;1.20;;;1.00;;
44270;SDS011;29963;44.594;11.368;2023-04-03T14:32:13;2.38;;;1.50;;
44270;SDS011;29963;44.594;11.368;2023-04-03T14:34:40;1.75;;;1.30;;
44270;SDS011;29963;44.594;11.368;2023-04-03T14:37:15;4.25;;;1.48;;
44270;SDS011;29963;44.594;11.368;2023-04-03T14:39:43;2.05;;;1.02;;
44270;SDS011;29963;44.594;11.368;2023-04-03T14:42:14;2.40;;;1.20;;
44270;SDS011;29963;44.594;11.368;2023-04-03T14:44:43;1.40;;;1.17;;
44270;SDS011;29963;44.594;11.368;2023-04-03T14:47:10;2.90;;;1.25;;
44270;SDS011;29963;44.594;11.368;2023-04-03T14:49:37;2.15;;;1.25;;
44270;SDS011;29963;44.594;11.368;2023-04-03T14:52:03;1.63;;;1.15;;
44270;SDS011;29963;44.594;11.368;2023-04-03T14:54:28;1.48;;;1.10;;
44270;SDS011;29963;44.594;11.368;2023-04-03T14:56:55;2.65;;;1.42;;
44270;SDS011;29963;44.594;11.368;2023-04-03T14:59:22;2.05;;;1.20;;
44270;SDS011;29963;44.594;11.368;2023-04-03T15:01:48;3.30;;;1.10;;
44270;SDS011;29963;44.594;11.368;2023-04-03T15:04:15;4.43;;;1.33;;
44270;SDS011;29963;44.594;11.368;2023-04-03T15:06:42;2.20;;;0.82;;
44270;SDS011;29963;44.594;11.368;2023-04-03T15:09:15;2.53;;;1.00;;
44270;SDS011;29963;44.594;11.368;2023-04-03T15:11:49;2.58;;;1.50;;
44270;SDS011;29963;44.594;11.368;2023-04-03T15:14:15;4.88;;;1.15;;
44270;SDS011;29963;44.594;11.368;2023-04-03T15:16:41;3.95;;;0.93;;
44270;SDS011;29963;44.594;11.368;2023-04-03T15:19:07;2.15;;;1.08;;
44270;SDS011;29963;44.594;11.368;2023-04-03T15:21:32;3.17;;;0.93;;
44270;SDS011;29963;44.594;11.368;2023-04-03T15:23:58;1.45;;;0.80;;
44270;SDS011;29963;44.594;11.368;2023-04-03T15:26:24;1.13;;;0.65;;
44270;SDS011;29963;44.594;11.368;2023-04-03T15:28:50;2.97;;;0.40;;
44270;SDS011;29963;44.594;11.368;2023-04-03T15:31:16;2.50;;;1.05;;
44270;SDS011;29963;44.594;11.368;2023-04-03T15:33:41;2.65;;;1.27;;
44270;SDS011;29963;44.594;11.368;2023-04-03T15:36:07;2.45;;;0.85;;
44270;SDS011;29963;44.594;11.368;2023-04-03T15:38:33;4.00;;;0.90;;
44270;SDS011;29963;44.594;11.368;2023-04-03T15:40:59;3.83;;;0.90;;
44270;SDS011;29963;44.594;11.368;2023-04-03T15:43:25;1.55;;;0.70;;
44270;SDS011;29963;44.594;11.368;2023-04-03T15:45:50;2.83;;;0.60;;
44270;SDS011;29963;44.594;11.368;2023-04-03T15:48:16;7.47;;;1.08;;
44270;SDS011;29963;44.594;11.368;2023-04-03T15:50:43;1.40;;;0.93;;
44270;SDS011;29963;44.594;11.368;2023-04-03T15:53:09;1.02;;;0.70;;
44270;SDS011;29963;44.594;11.368;2023-04-03T15:55:35;2.97;;;0.80;;
44270;SDS011;29963;44.594;11.368;2023-04-03T15:58:02;2.88;;;1.05;;
44270;SDS011;29963;44.594;11.368;2023-04-03T16:00:29;5.28;;;0.80;;
44270;SDS011;29963;44.594;11.368;2023-04-03T16:02:57;2.00;;;1.00;;
44270;SDS011;29963;44.594;11.368;2023-04-03T16:05:26;7.75;;;0.95;;
44270;SDS011;29963;44.594;11.368;2023-04-03T16:07:52;4.60;;;0.95;;
44270;SDS011;29963;44.594;11.368;2023-04-03T16:10:19;2.00;;;0.80;;
44270;SDS011;29963;44.594;11.368;2023-04-03T16:12:46;2.83;;;0.85;;
44270;SDS011;29963;44.594;11.368;2023-04-03T16:15:12;2.80;;;1.02;;
44270;SDS011;29963;44.594;11.368;2023-04-03T16:17:37;1.73;;;0.50;;
44270;SDS011;29963;44.594;11.368;2023-04-03T16:20:05;1.52;;;0.88;;
44270;SDS011;29963;44.594;11.368;2023-04-03T16:22:32;2.38;;;0.98;;
44270;SDS011;29963;44.594;11.368;2023-04-03T16:24:58;1.75;;;0.82;;
44270;SDS011;29963;44.594;11.368;2023-04-03T16:27:24;3.00;;;0.63;;
44270;SDS011;29963;44.594;11.368;2023-04-03T16:29:53;2.83;;;0.80;;
44270;SDS011;29963;44.594;11.368;2023-04-03T16:32:19;2.35;;;0.60;;